createdAt,value
2022-08-26T00:02:00.251Z,23.60
2022-08-26T00:04:27.289Z,23.60
2022-08-26T00:06:54.866Z,23.61
2022-08-26T00:09:23.175Z,23.61
2022-08-26T00:11:51.672Z,23.62
2022-08-26T00:14:31.168Z,23.63
2022-08-26T00:16:58.410Z,23.63
2022-08-26T00:19:25.479Z,23.59
2022-08-26T00:21:52.061Z,23.55
2022-08-26T00:24:20.820Z,23.55
2022-08-26T00:26:48.222Z,23.54
2022-08-26T00:29:24.631Z,23.55
2022-08-26T00:31:53.112Z,23.60
2022-08-26T00:34:19.770Z,23.64
2022-08-26T00:36:47.223Z,23.65
2022-08-26T00:39:15.766Z,23.67
2022-08-26T00:41:43.233Z,23.70
2022-08-26T00:44:11.001Z,23.71
2022-08-26T00:46:46.931Z,23.71
2022-08-26T00:49:16.728Z,23.73
2022-08-26T00:51:51.169Z,23.76
2022-08-26T00:54:20.776Z,23.76
2022-08-26T00:57:00.635Z,23.77
2022-08-26T00:59:29.167Z,23.78
2022-08-26T01:02:00.228Z,23.80
2022-08-26T01:04:30.700Z,23.78
2022-08-26T01:06:57.576Z,23.80
2022-08-26T01:09:24.369Z,23.82
2022-08-26T01:11:54.645Z,23.82
2022-08-26T01:14:22.533Z,23.84
2022-08-26T01:16:49.303Z,23.83
2022-08-26T01:19:21.786Z,23.81
2022-08-26T01:21:55.497Z,23.80
2022-08-26T01:24:21.953Z,23.77
2022-08-26T01:26:52.116Z,23.73
2022-08-26T01:29:20.175Z,23.71
2022-08-26T01:32:10.497Z,23.68
2022-08-26T01:34:38.657Z,23.63
2022-08-26T01:37:13.634Z,23.61
2022-08-26T01:39:45.116Z,23.59
2022-08-26T01:42:14.602Z,23.60
2022-08-26T01:45:06.311Z,23.59
2022-08-26T01:47:46.114Z,23.58
2022-08-26T01:50:28.180Z,23.54
2022-08-26T01:52:58.067Z,23.50
2022-08-26T01:55:33.432Z,23.47
2022-08-26T01:58:04.758Z,23.40
2022-08-26T02:00:41.618Z,23.39
2022-08-26T02:03:21.338Z,23.38
2022-08-26T02:05:55.027Z,23.34
2022-08-26T02:08:35.873Z,23.32
2022-08-26T02:11:02.548Z,23.31
2022-08-26T02:13:30.515Z,23.28
2022-08-26T02:15:58.183Z,23.24
2022-08-26T02:18:25.951Z,23.24
2022-08-26T02:20:53.610Z,23.21
2022-08-26T02:23:20.175Z,23.18
2022-08-26T02:26:00.790Z,23.17
2022-08-26T02:28:32.273Z,23.13
2022-08-26T02:30:58.916Z,23.11
2022-08-26T02:33:28.460Z,23.08
2022-08-26T02:35:54.930Z,23.08
2022-08-26T02:38:21.417Z,23.09
2022-08-26T02:40:48.181Z,23.07
2022-08-26T02:43:14.808Z,23.04
2022-08-26T02:45:41.884Z,23.04
2022-08-26T02:48:11.625Z,23.02
2022-08-26T02:50:39.314Z,23.03
2022-08-26T02:53:07.279Z,23.01
2022-08-26T02:55:34.487Z,22.99
2022-08-26T02:58:01.488Z,22.97
2022-08-26T03:00:29.501Z,22.92
2022-08-26T03:02:56.524Z,22.90
2022-08-26T03:05:24.069Z,22.91
2022-08-26T03:07:51.560Z,22.94
2022-08-26T03:10:18.406Z,22.94
2022-08-26T03:12:47.520Z,22.95
2022-08-26T03:15:17.900Z,22.96
2022-08-26T03:17:47.301Z,22.98
2022-08-26T03:20:17.497Z,22.99
2022-08-26T03:22:44.570Z,22.96
2022-08-26T03:25:13.510Z,22.97
2022-08-26T03:27:41.337Z,22.96
2022-08-26T03:30:29.101Z,22.93
2022-08-26T03:32:55.573Z,22.81
2022-08-26T03:35:22.417Z,22.76
2022-08-26T03:37:49.136Z,22.73
2022-08-26T03:40:23.000Z,22.71
2022-08-26T03:42:50.123Z,22.69
2022-08-26T03:45:17.865Z,22.60
2022-08-26T03:47:44.943Z,22.49
2022-08-26T03:50:14.028Z,22.34
2022-08-26T03:52:43.832Z,22.23
2022-08-26T03:55:10.965Z,22.09
2022-08-26T03:57:43.820Z,22.01
2022-08-26T04:00:18.389Z,21.96
2022-08-26T04:02:46.628Z,21.90
2022-08-26T04:05:17.381Z,21.87
2022-08-26T04:07:44.508Z,21.83
2022-08-26T04:10:12.743Z,21.81
2022-08-26T04:12:39.621Z,21.79
2022-08-26T04:15:08.056Z,21.72
2022-08-26T04:17:34.766Z,21.62
2022-08-26T04:20:02.619Z,21.60
2022-08-26T04:22:29.381Z,21.60
2022-08-26T04:24:55.991Z,21.57
2022-08-26T04:27:32.148Z,21.58
2022-08-26T04:30:25.315Z,21.62
2022-08-26T04:32:52.363Z,21.65
2022-08-26T04:35:25.459Z,21.67
2022-08-26T04:41:31.647Z,21.70
2022-08-26T04:43:58.341Z,21.74
2022-08-26T04:46:25.403Z,21.77
2022-08-26T04:48:53.350Z,21.80
2022-08-26T04:51:20.876Z,21.80
2022-08-26T04:53:47.483Z,21.84
2022-08-26T04:56:14.273Z,21.81
2022-08-26T04:59:05.143Z,21.73
2022-08-26T05:01:34.599Z,21.71
2022-08-26T05:04:07.986Z,21.72
2022-08-26T05:06:36.911Z,21.73
2022-08-26T05:09:03.884Z,21.74
2022-08-26T05:11:30.336Z,21.74
2022-08-26T05:14:01.663Z,21.74
2022-08-26T05:16:30.284Z,21.79
2022-08-26T05:18:57.489Z,21.77
2022-08-26T05:21:26.588Z,21.76
2022-08-26T05:23:56.547Z,21.72
2022-08-26T05:26:25.775Z,21.70
2022-08-26T05:28:54.839Z,21.65
2022-08-26T05:31:29.094Z,21.54
2022-08-26T05:33:57.448Z,21.53
2022-08-26T05:36:26.992Z,21.55
2022-08-26T05:38:54.369Z,21.57
2022-08-26T05:41:24.836Z,21.57
2022-08-26T05:43:51.981Z,21.55
2022-08-26T05:46:18.923Z,21.55
2022-08-26T05:48:46.086Z,21.51
2022-08-26T05:51:14.115Z,21.48
2022-08-26T05:53:43.810Z,21.51
2022-08-26T05:56:12.602Z,21.54
2022-08-26T05:58:41.020Z,21.51
2022-08-26T06:01:14.341Z,21.51
2022-08-26T06:03:46.790Z,21.51
2022-08-26T06:06:19.966Z,21.52
2022-08-26T06:08:47.558Z,21.47
2022-08-26T06:11:18.682Z,21.44
2022-08-26T06:13:45.929Z,21.36
2022-08-26T06:16:15.916Z,21.28
2022-08-26T06:18:44.677Z,21.27
2022-08-26T06:21:29.365Z,21.26
2022-08-26T06:24:17.541Z,21.29
2022-08-26T06:26:51.084Z,21.29
2022-08-26T06:29:24.653Z,21.33
2022-08-26T06:31:52.713Z,21.39
2022-08-26T06:34:19.428Z,21.40
2022-08-26T06:36:47.169Z,21.33
2022-08-26T06:39:15.841Z,21.33
2022-08-26T06:41:44.961Z,21.38
2022-08-26T06:44:17.528Z,21.41
2022-08-26T06:46:45.610Z,21.48
2022-08-26T06:49:12.846Z,21.53
2022-08-26T06:51:40.700Z,21.50
2022-08-26T06:54:07.760Z,21.47
2022-08-26T06:56:37.228Z,21.44
2022-08-26T06:59:04.037Z,21.48
2022-08-26T07:01:37.036Z,21.53
2022-08-26T07:04:07.902Z,21.58
2022-08-26T07:06:39.862Z,21.63
2022-08-26T07:09:09.964Z,21.64
2022-08-26T07:11:38.776Z,21.62
2022-08-26T07:14:06.555Z,21.59
2022-08-26T07:16:33.709Z,21.63
2022-08-26T07:19:03.580Z,21.70
2022-08-26T07:21:38.061Z,21.76
2022-08-26T07:24:04.625Z,21.85
2022-08-26T07:26:31.588Z,21.96
2022-08-26T07:28:59.645Z,22.08
2022-08-26T07:31:28.497Z,22.19
2022-08-26T07:33:56.830Z,22.27
2022-08-26T07:36:24.276Z,22.28
2022-08-26T07:38:51.601Z,22.34
2022-08-26T07:41:20.030Z,22.45
2022-08-26T07:43:46.621Z,22.54
2022-08-26T07:46:20.794Z,22.62
2022-08-26T07:48:53.874Z,22.70
2022-08-26T07:51:21.509Z,22.79
2022-08-26T07:53:52.806Z,22.83
2022-08-26T07:56:23.295Z,22.87
2022-08-26T07:58:53.457Z,22.94
2022-08-26T08:01:21.035Z,22.96
2022-08-26T08:03:51.225Z,23.00
2022-08-26T08:06:22.255Z,23.04
2022-08-26T08:08:50.928Z,23.10
2022-08-26T08:11:22.441Z,23.17
2022-08-26T08:13:56.298Z,23.21
2022-08-26T08:16:25.169Z,23.22
2022-08-26T08:18:53.335Z,23.23
2022-08-26T08:21:21.842Z,23.27
2022-08-26T08:23:51.769Z,23.28
2022-08-26T08:26:18.466Z,23.31
2022-08-26T08:28:46.159Z,23.36
2022-08-26T08:31:45.040Z,23.43
2022-08-26T08:34:09.106Z,23.46
2022-08-26T08:36:36.138Z,23.44
2022-08-26T08:39:03.217Z,23.40
2022-08-26T08:41:58.577Z,23.31
2022-08-26T08:47:16.212Z,23.15
2022-08-26T08:49:43.369Z,23.11
2022-08-26T08:52:28.963Z,23.04
2022-08-26T08:54:56.020Z,22.89
2022-08-26T08:57:32.811Z,22.83
2022-08-26T09:00:30.218Z,22.80
2022-08-26T09:03:10.775Z,22.80
2022-08-26T09:05:48.498Z,22.79
2022-08-26T09:08:19.731Z,22.80
2022-08-26T09:10:51.228Z,22.84
2022-08-26T09:13:26.281Z,22.84
2022-08-26T09:16:03.618Z,22.77
2022-08-26T09:18:37.341Z,22.64
2022-08-26T09:21:16.769Z,22.54
2022-08-26T09:23:47.055Z,22.44
2022-08-26T09:26:19.810Z,22.36
2022-08-26T09:28:49.625Z,22.30
2022-08-26T09:31:22.386Z,22.22
2022-08-26T09:34:06.053Z,22.12
2022-08-26T09:36:53.775Z,22.02
2022-08-26T09:39:23.508Z,21.95
2022-08-26T09:42:09.562Z,21.91
2022-08-26T09:44:56.555Z,21.91
2022-08-26T09:47:27.859Z,21.89
2022-08-26T09:50:34.129Z,21.86
2022-08-26T09:53:28.521Z,21.90
2022-08-26T09:56:18.898Z,21.96
2022-08-26T09:58:47.382Z,21.98
2022-08-26T10:01:25.936Z,22.03
2022-08-26T10:03:52.599Z,22.09
2022-08-26T10:06:23.631Z,22.08
2022-08-26T10:08:54.416Z,22.12
2022-08-26T10:11:24.803Z,22.22
2022-08-26T10:13:55.217Z,22.34
2022-08-26T10:16:25.454Z,22.41
2022-08-26T10:19:06.528Z,22.50
2022-08-26T10:21:54.797Z,22.59
2022-08-26T10:24:39.550Z,22.67
2022-08-26T10:27:14.651Z,22.71
2022-08-26T10:29:44.656Z,22.71
2022-08-26T10:32:26.822Z,22.69
2022-08-26T10:34:54.387Z,22.66
2022-08-26T10:37:23.398Z,22.61
2022-08-26T10:40:04.415Z,22.58
2022-08-26T10:42:40.840Z,22.57
2022-08-26T10:45:20.137Z,22.54
2022-08-26T10:47:57.261Z,22.53
2022-08-26T10:50:28.257Z,22.49
2022-08-26T10:53:19.486Z,22.46
2022-08-26T10:56:15.767Z,22.44
2022-08-26T10:58:51.331Z,22.47
2022-08-26T11:01:40.871Z,22.48
2022-08-26T11:04:35.007Z,22.53
2022-08-26T11:07:37.217Z,22.61
2022-08-26T11:10:45.158Z,22.69
2022-08-26T11:13:12.049Z,22.79
2022-08-26T11:15:38.433Z,22.88
2022-08-26T11:18:45.129Z,22.98
2022-08-26T11:22:02.164Z,23.08
2022-08-26T11:24:44.019Z,23.21
2022-08-26T11:27:36.681Z,23.31
2022-08-26T11:30:33.827Z,23.46
2022-08-26T11:33:00.831Z,23.56
2022-08-26T11:35:48.497Z,23.65
2022-08-26T11:38:18.603Z,23.77
2022-08-26T11:40:45.247Z,23.87
2022-08-26T11:43:21.949Z,23.90
2022-08-26T11:46:01.867Z,23.97
2022-08-26T11:48:34.754Z,24.10
2022-08-26T11:51:11.702Z,24.24
2022-08-26T11:53:42.964Z,24.36
2022-08-26T11:56:17.948Z,24.47
2022-08-26T11:58:48.116Z,24.57
2022-08-26T12:01:26.617Z,24.67
2022-08-26T12:03:55.145Z,24.72
2022-08-26T12:06:36.430Z,24.79
2022-08-26T12:09:12.110Z,24.90
2022-08-26T12:11:40.043Z,24.99
2022-08-26T12:14:09.619Z,25.08
2022-08-26T12:16:39.027Z,25.22
2022-08-26T12:19:26.299Z,25.34
2022-08-26T12:22:01.453Z,25.46
2022-08-26T12:24:28.109Z,25.64
2022-08-26T12:27:17.909Z,25.81
2022-08-26T12:29:44.597Z,25.94
2022-08-26T12:32:17.689Z,26.08
2022-08-26T12:34:45.668Z,26.14
2022-08-26T12:37:13.960Z,26.20
2022-08-26T12:39:41.960Z,26.29
2022-08-26T12:42:17.119Z,26.33
2022-08-26T12:44:53.871Z,26.36
2022-08-26T12:47:43.203Z,26.47
2022-08-26T12:50:31.291Z,26.61
2022-08-26T12:53:03.955Z,26.76
2022-08-26T12:55:51.953Z,26.88
2022-08-26T12:58:18.303Z,27.01
2022-08-26T13:00:48.365Z,27.08
2022-08-26T13:03:47.992Z,27.11
2022-08-26T13:06:23.291Z,27.21
2022-08-26T13:08:54.804Z,27.36
2022-08-26T13:11:28.925Z,27.48
2022-08-26T13:14:06.881Z,27.64
2022-08-26T13:16:34.264Z,27.82
2022-08-26T13:19:03.958Z,27.96
2022-08-26T13:21:37.502Z,28.10
2022-08-26T13:24:12.043Z,28.28
2022-08-26T13:26:39.843Z,28.47
2022-08-26T13:29:10.133Z,28.64
2022-08-26T13:31:39.362Z,28.79
2022-08-26T13:34:06.049Z,28.99
2022-08-26T13:36:32.714Z,29.15
2022-08-26T13:38:59.225Z,29.24
2022-08-26T13:41:29.121Z,29.34
2022-08-26T13:43:56.363Z,29.46
2022-08-26T13:46:22.875Z,29.47
2022-08-26T13:48:49.388Z,29.47
2022-08-26T13:51:18.492Z,29.46
2022-08-26T13:53:44.955Z,29.56
2022-08-26T13:56:11.416Z,29.62
2022-08-26T13:58:37.878Z,29.64
2022-08-26T14:01:10.767Z,29.68
2022-08-26T14:03:37.502Z,29.63
2022-08-26T14:06:04.110Z,29.66
2022-08-26T14:08:32.144Z,29.82
2022-08-26T14:10:59.277Z,30.04
2022-08-26T14:13:25.890Z,30.21
2022-08-26T14:15:52.806Z,30.32
2022-08-26T14:18:22.669Z,30.34
2022-08-26T14:20:52.827Z,30.40
2022-08-26T14:23:19.305Z,30.38
2022-08-26T14:25:45.797Z,30.27
2022-08-26T14:28:12.352Z,30.22
2022-08-26T14:30:42.794Z,30.32
2022-08-26T14:33:12.738Z,30.44
2022-08-26T14:35:39.504Z,30.51
2022-08-26T14:38:06.153Z,30.44
2022-08-26T14:40:34.021Z,30.23
2022-08-26T14:43:05.360Z,30.03
2022-08-26T14:45:32.834Z,29.88
2022-08-26T14:47:59.751Z,29.73
2022-08-26T14:50:26.318Z,29.52
2022-08-26T14:53:11.455Z,29.41
2022-08-26T14:55:40.471Z,29.34
2022-08-26T14:58:08.344Z,29.41
2022-08-26T15:00:36.141Z,29.49
2022-08-26T15:03:33.776Z,29.60
2022-08-26T15:06:00.698Z,29.68
2022-08-26T15:11:32.916Z,29.53
2022-08-26T15:14:19.369Z,29.50
2022-08-26T15:16:49.650Z,29.44
2022-08-26T15:19:25.839Z,29.36
2022-08-26T15:21:52.556Z,29.29
2022-08-26T15:24:58.522Z,29.20
2022-08-26T15:27:25.314Z,29.24
2022-08-26T15:29:51.847Z,29.33
2022-08-26T15:32:18.605Z,29.29
2022-08-26T15:34:52.453Z,29.28
2022-08-26T15:37:27.980Z,29.25
2022-08-26T15:39:59.195Z,29.29
2022-08-26T15:42:32.775Z,29.26
2022-08-26T15:45:05.769Z,29.20
2022-08-26T15:48:05.608Z,29.09
2022-08-26T15:50:33.571Z,29.08
2022-08-26T15:53:01.315Z,29.03
2022-08-26T15:55:27.754Z,28.93
2022-08-26T15:57:55.545Z,28.83
2022-08-26T16:00:39.817Z,28.65
2022-08-26T16:03:31.763Z,28.63
2022-08-26T16:05:58.415Z,28.66
2022-08-26T16:08:25.337Z,28.67
2022-08-26T16:10:55.408Z,28.67
2022-08-26T16:13:51.546Z,28.68
2022-08-26T16:16:19.830Z,28.67
2022-08-26T16:18:50.452Z,28.61
2022-08-26T16:21:36.686Z,28.51
2022-08-26T16:24:39.539Z,28.37
2022-08-26T16:27:06.769Z,28.27
2022-08-26T16:29:40.432Z,28.24
2022-08-26T16:32:08.791Z,28.10
2022-08-26T16:34:37.681Z,28.01
2022-08-26T16:37:20.893Z,27.88
2022-08-26T16:40:05.963Z,27.64
2022-08-26T16:42:33.137Z,27.53
2022-08-26T16:44:59.680Z,27.40
2022-08-26T16:47:26.303Z,27.27
2022-08-26T16:49:53.058Z,27.12
2022-08-26T16:52:19.561Z,27.05
2022-08-26T16:54:46.015Z,27.01
2022-08-26T16:57:12.943Z,26.98
2022-08-26T16:59:40.189Z,26.91
2022-08-26T17:02:07.616Z,26.82
2022-08-26T17:04:34.147Z,26.76
2022-08-26T17:07:00.647Z,26.75
2022-08-26T17:09:27.135Z,26.72
2022-08-26T17:11:54.251Z,26.69
2022-08-26T17:14:21.244Z,26.62
2022-08-26T17:16:51.045Z,26.58
2022-08-26T17:19:19.129Z,26.46
2022-08-26T17:21:46.223Z,26.26
2022-08-26T17:24:12.744Z,26.15
2022-08-26T17:26:39.238Z,26.10
2022-08-26T17:29:07.371Z,26.03
2022-08-26T17:31:34.591Z,25.95
2022-08-26T17:34:01.111Z,25.91
2022-08-26T17:36:28.476Z,25.83
2022-08-26T17:38:55.904Z,25.78
2022-08-26T17:41:22.367Z,25.74
2022-08-26T17:43:48.830Z,25.65
2022-08-26T17:46:15.471Z,25.57
2022-08-26T17:48:42.098Z,25.50
2022-08-26T17:51:10.988Z,25.42
2022-08-26T17:53:37.364Z,25.39
2022-08-26T17:56:12.568Z,25.39
2022-08-26T17:58:39.875Z,25.33
2022-08-26T18:01:06.555Z,25.35
2022-08-26T18:03:33.555Z,25.26
2022-08-26T18:06:00.016Z,25.18
2022-08-26T18:08:26.665Z,25.14
2022-08-26T18:10:53.169Z,25.10
2022-08-26T18:13:19.623Z,25.07
2022-08-26T18:15:46.949Z,25.06
2022-08-26T18:18:14.464Z,25.12
2022-08-26T18:20:42.865Z,25.17
2022-08-26T18:23:09.652Z,25.18
2022-08-26T18:25:40.394Z,25.19
2022-08-26T18:28:07.429Z,25.21
2022-08-26T18:30:34.278Z,25.22
2022-08-26T18:33:01.002Z,25.20
2022-08-26T18:35:29.763Z,25.13
2022-08-26T18:37:57.452Z,25.05
2022-08-26T18:40:27.982Z,24.96
2022-08-26T18:42:54.503Z,24.83
2022-08-26T18:51:34.235Z,24.37
2022-08-26T18:54:06.828Z,24.31
2022-08-26T18:56:35.385Z,24.24
2022-08-26T18:59:08.675Z,24.09
2022-08-26T19:01:36.341Z,23.95
2022-08-26T19:04:04.790Z,23.80
2022-08-26T19:06:33.022Z,23.63
2022-08-26T19:09:03.122Z,23.51
2022-08-26T19:11:32.333Z,23.38
2022-08-26T19:14:07.372Z,23.26
2022-08-26T19:16:34.015Z,23.12
2022-08-26T19:19:01.776Z,23.01
2022-08-26T19:21:29.511Z,22.93
2022-08-26T19:23:57.930Z,22.84
2022-08-26T19:42:43.618Z,22.45
2022-08-26T19:45:24.548Z,22.44
2022-08-26T19:47:52.881Z,22.40
2022-08-26T19:50:20.458Z,22.37
2022-08-26T19:53:15.677Z,22.35
2022-08-26T19:55:57.653Z,22.32
2022-08-26T19:58:24.119Z,22.28
2022-08-26T20:01:43.836Z,22.24
2022-08-26T20:04:47.269Z,22.22
2022-08-26T20:07:20.521Z,22.18
2022-08-26T20:09:48.222Z,22.15
2022-08-26T20:12:41.601Z,22.12
2022-08-26T20:15:15.867Z,22.12
2022-08-26T20:17:43.536Z,22.14
2022-08-26T20:20:33.243Z,22.15
2022-08-26T20:23:36.934Z,22.12
2022-08-26T20:26:03.969Z,22.13
2022-08-26T20:28:34.925Z,22.13
2022-08-26T20:31:02.179Z,22.14
2022-08-26T20:34:19.773Z,22.13
2022-08-26T20:40:08.682Z,22.16
2022-08-26T20:42:35.614Z,22.16
2022-08-26T20:45:03.155Z,22.15
2022-08-26T20:52:40.966Z,22.12
2022-08-26T20:55:07.923Z,22.13
2022-08-26T20:57:41.910Z,22.09
2022-08-26T21:00:11.814Z,22.06
2022-08-26T21:02:46.364Z,22.05
2022-08-26T21:05:12.971Z,22.06
2022-08-26T21:07:39.550Z,22.06
2022-08-26T21:14:26.131Z,21.99
2022-08-26T21:16:53.240Z,21.97
2022-08-26T21:19:19.860Z,21.94
2022-08-26T21:21:52.488Z,21.92
2022-08-26T21:24:19.811Z,21.90
2022-08-26T21:26:46.651Z,21.88
2022-08-26T21:30:16.623Z,21.85
2022-08-26T21:32:46.396Z,21.81
2022-08-26T21:35:12.953Z,21.77
2022-08-26T21:37:45.255Z,21.76
2022-08-26T21:40:12.245Z,21.74
2022-08-26T21:43:16.593Z,21.74
2022-08-26T21:46:14.351Z,21.74
2022-08-26T21:48:56.969Z,21.70
2022-08-26T21:51:30.224Z,21.69
2022-08-26T21:53:57.730Z,21.67
2022-08-26T21:56:56.816Z,21.65
2022-08-26T21:59:25.634Z,21.63
2022-08-26T22:01:52.163Z,21.62
2022-08-26T22:04:18.640Z,21.59
2022-08-26T22:06:47.646Z,21.57
2022-08-26T22:10:19.113Z,21.55
2022-08-26T22:12:46.079Z,21.51
2022-08-26T22:15:13.164Z,21.46
2022-08-26T22:17:48.648Z,21.39
2022-08-26T22:20:16.472Z,21.36
2022-08-26T22:22:43.346Z,21.35
2022-08-26T22:25:10.006Z,21.35
2022-08-26T22:27:40.451Z,21.38
2022-08-26T22:30:11.812Z,21.43
2022-08-26T22:37:08.935Z,21.49
2022-08-26T22:39:39.815Z,21.52
2022-08-26T22:42:57.935Z,21.57
2022-08-26T22:45:41.258Z,21.62
2022-08-26T22:48:08.627Z,21.65
2022-08-26T22:50:44.104Z,21.67
2022-08-26T22:53:35.236Z,21.72
2022-08-26T22:56:26.405Z,21.73
2022-08-26T22:58:52.947Z,21.75
2022-08-26T23:01:19.482Z,21.76
2022-08-26T23:04:05.264Z,21.75
2022-08-26T23:06:57.208Z,21.76
2022-08-26T23:09:24.194Z,21.76
2022-08-26T23:11:55.984Z,21.75
2022-08-26T23:14:39.346Z,21.73
2022-08-26T23:17:14.253Z,21.72
2022-08-26T23:19:41.936Z,21.72
2022-08-26T23:22:33.772Z,21.69
2022-08-26T23:25:02.342Z,21.68
2022-08-26T23:27:36.223Z,21.65
2022-08-26T23:30:05.248Z,21.60
2022-08-26T23:32:31.767Z,21.58
2022-08-26T23:35:21.596Z,21.52
2022-08-26T23:37:51.174Z,21.49
2022-08-26T23:40:22.991Z,21.49
2022-08-26T23:42:51.821Z,21.47
2022-08-26T23:45:19.895Z,21.47
2022-08-26T23:47:58.437Z,21.48
2022-08-26T23:56:00.731Z,21.48
2022-08-26T23:58:45.010Z,21.48
